BIENTÔT MET'MAP
version 2.0 !

Prévue avant fin octobre,
la nouvelle version sera
plus belle, plus complète
et hébergée sur un serveur
3 fois plus puissant...
et toujours gratuite !


Pas compatible ?
Essayez la version Mobile !

SE CONNECTER : | S'inscrire | Disclaimer | Découvrir Orbifly |
Code OACI :

TAF - LIRQ Firenze Amerigo Vespucci Airport - 23 Feb 2020 21:59 UTC
Data Sources :     NOAA   


- Altitude de l'aérodrome : 142 ft
- Code IATA : FLR
- Pas de NOTAMs connus.


LIRQ - Firenze Amerigo Vespucci Airport

Dernier METAR connu : 2015/08/11 07:50 LIRQ 110750Z VRB02KT CAVOK 25/19 Q1012
TAF TAF LIRQ
Valide du 23 à 18h jusqu'au 24 à 18h UTC


231700Z 2318/2418 VRB04KT 9999 FEW030
BECMG 2322/2324 4000 BR
TEMPO 2401/2406 1200 BCFG BKN010
BECMG 2408/2410 23010KT 9999

Source NOAA


MET'MAP, la Météo Aéronautique d'un coup d'oeil ! - Copyright ORBIFLY Décembre 2007

Développement & Programmation : Alexandra Zaïnal
Co-Développement : Marc-Olivier Méhu
Soutien technique & logistique : Manuel Goepfert
Conception & Financement : Baudouin d'Aumeries